Time;durP1;ratioP1;P1;durP2;ratioP2;P2;SDS_P1;SDS_P2;PMS_P1;PMS_P2;Temp;Humidity;BMP_temperature;BMP_pressure;BME280_temperature;BME280_humidity;BME280_pressure;Samples;Min_cycle;Max_cycle;Signal;HPM_P1;HPM_P2
2023/07/13 00:01:51;;;;;;;1.17;0.70;;;20.40;76.00;;;;;;5019596;28;20198;-63
2023/07/13 00:04:24;;;;;;;1.55;0.60;;;20.30;76.10;;;;;;5019088;28;20205;-64
2023/07/13 00:06:53;;;;;;;1.45;0.68;;;20.30;76.30;;;;;;5019378;28;20189;-63
2023/07/13 00:09:23;;;;;;;2.03;0.85;;;20.30;76.50;;;;;;5015606;28;20217;-63
2023/07/13 00:11:59;;;;;;;2.00;0.65;;;20.20;76.60;;;;;;5028248;28;20170;-63
2023/07/13 00:14:29;;;;;;;3.15;0.77;;;20.20;76.80;;;;;;5017153;28;20345;-64
2023/07/13 00:17:00;;;;;;;1.60;0.75;;;20.10;76.80;;;;;;5036041;28;20209;-63
2023/07/13 00:19:26;;;;;;;1.33;0.70;;;20.10;77.00;;;;;;5034239;28;20179;-64
2023/07/13 00:21:55;;;;;;;1.70;0.73;;;20.00;77.00;;;;;;5035901;28;20181;-63
2023/07/13 00:24:23;;;;;;;1.45;0.63;;;20.10;77.30;;;;;;5020708;28;20542;-63
2023/07/13 00:26:52;;;;;;;2.33;0.90;;;20.00;77.30;;;;;;5012032;28;20189;-64
2023/07/13 00:29:17;;;;;;;1.25;0.60;;;20.00;77.60;;;;;;5019711;28;20190;-61
2023/07/13 00:31:44;;;;;;;2.95;0.70;;;19.90;77.60;;;;;;5034725;28;20185;-63
2023/07/13 00:34:12;;;;;;;2.28;1.13;;;19.90;77.70;;;;;;5035960;28;20170;-62
2023/07/13 00:36:40;;;;;;;1.60;0.80;;;19.80;77.70;;;;;;5015975;28;20203;-59
2023/07/13 00:39:10;;;;;;;1.90;0.70;;;19.80;78.00;;;;;;5018018;28;20193;-64
2023/07/13 00:41:38;;;;;;;0.88;0.70;;;19.80;78.20;;;;;;5007978;28;20170;-64
2023/07/13 00:44:13;;;;;;;2.60;1.30;;;19.70;78.30;;;;;;5015732;28;20174;-63
2023/07/13 00:46:41;;;;;;;1.92;0.68;;;19.70;78.50;;;;;;5030960;28;20182;-64
2023/07/13 00:49:09;;;;;;;1.50;0.70;;;19.70;78.60;;;;;;5399215;23;20294;-63
2023/07/13 00:51:53;;;;;;;1.40;0.95;;;19.60;78.70;;;;;;5001747;28;20218;-64
2023/07/13 00:54:24;;;;;;;1.25;0.75;;;19.60;79.00;;;;;;5011842;28;20178;-64
2023/07/13 00:56:52;;;;;;;2.13;0.85;;;19.60;79.10;;;;;;4980078;28;20226;-64
2023/07/13 00:59:22;;;;;;;2.22;1.00;;;19.50;79.20;;;;;;4998086;28;20183;-65
2023/07/13 01:01:50;;;;;;;2.20;0.77;;;19.50;79.50;;;;;;5000203;28;20175;-62
2023/07/13 01:04:17;;;;;;;1.90;0.73;;;19.50;79.60;;;;;;4995945;28;20203;-63
2023/07/13 01:06:44;;;;;;;1.58;0.70;;;19.40;79.70;;;;;;4996570;28;20183;-62
2023/07/13 01:09:11;;;;;;;1.63;0.73;;;19.40;79.90;;;;;;5002696;28;20230;-63
2023/07/13 01:11:39;;;;;;;1.98;0.95;;;19.40;80.10;;;;;;4998727;28;20240;-63
2023/07/13 01:14:07;;;;;;;2.50;0.80;;;19.40;80.20;;;;;;4998181;28;20183;-63
2023/07/13 01:16:37;;;;;;;1.52;0.73;;;19.30;80.20;;;;;;4996611;28;20234;-63
2023/07/13 01:19:20;;;;;;;1.33;0.60;;;19.30;80.40;;;;;;5003884;28;20179;-60
2023/07/13 01:21:50;;;;;;;2.33;0.90;;;19.30;80.60;;;;;;5009331;28;20167;-60
2023/07/13 01:24:16;;;;;;;2.38;0.80;;;19.30;80.70;;;;;;5009426;28;20194;-61
2023/07/13 01:26:44;;;;;;;1.27;0.80;;;19.30;80.80;;;;;;4997372;28;20273;-63
2023/07/13 01:29:12;;;;;;;2.22;0.80;;;19.30;80.90;;;;;;4998399;28;20190;-63
2023/07/13 01:31:37;;;;;;;1.60;0.68;;;19.20;81.00;;;;;;4999369;28;20194;-64
2023/07/13 01:34:03;;;;;;;2.40;0.95;;;19.20;81.20;;;;;;5003875;28;20248;-61
2023/07/13 01:36:29;;;;;;;3.42;0.80;;;19.10;81.20;;;;;;5011867;28;20198;-63
2023/07/13 01:38:57;;;;;;;2.17;0.70;;;19.10;81.40;;;;;;5014261;28;20179;-64
2023/07/13 01:41:22;;;;;;;1.25;0.73;;;19.10;81.60;;;;;;4991913;28;20215;-65
2023/07/13 01:43:48;;;;;;;1.20;0.70;;;19.00;81.70;;;;;;5011193;28;20210;-62
2023/07/13 01:46:14;;;;;;;1.02;0.63;;;19.00;81.90;;;;;;4998621;28;20193;-61
2023/07/13 01:48:47;;;;;;;1.42;0.75;;;19.00;82.00;;;;;;5014362;28;20201;-61
2023/07/13 01:51:14;;;;;;;2.28;0.85;;;18.90;82.20;;;;;;5008184;28;20186;-61
2023/07/13 01:53:42;;;;;;;1.40;0.70;;;18.90;82.30;;;;;;5002094;28;20174;-62
2023/07/13 01:56:08;;;;;;;1.38;0.63;;;18.90;82.60;;;;;;4987689;28;20242;-62
2023/07/13 01:58:34;;;;;;;2.65;0.80;;;18.90;82.70;;;;;;4998144;28;20230;-62
2023/07/13 02:00:59;;;;;;;1.90;0.90;;;18.90;82.90;;;;;;5001784;28;20202;-63
2023/07/13 02:03:27;;;;;;;2.10;0.88;;;18.90;83.10;;;;;;4987559;28;20184;-63
2023/07/13 02:05:53;;;;;;;2.35;1.10;;;18.90;83.20;;;;;;4988559;28;20206;-63
2023/07/13 02:08:23;;;;;;;3.28;1.00;;;18.90;83.20;;;;;;4995214;28;20197;-63
2023/07/13 02:10:49;;;;;;;2.70;0.93;;;18.90;83.50;;;;;;4998073;28;20182;-62
2023/07/13 02:13:16;;;;;;;3.20;1.30;;;19.00;83.60;;;;;;4998375;28;20186;-63
2023/07/13 02:15:44;;;;;;;1.90;1.00;;;18.90;83.70;;;;;;4997585;28;20199;-63
2023/07/13 02:18:10;;;;;;;1.73;1.00;;;19.00;84.00;;;;;;4997122;28;20504;-62
2023/07/13 02:20:36;;;;;;;3.10;1.17;;;19.00;84.10;;;;;;5009180;28;21727;-62
2023/07/13 02:23:01;;;;;;;3.47;0.75;;;19.00;84.20;;;;;;5014301;28;20179;-64
2023/07/13 02:25:27;;;;;;;1.75;0.80;;;19.00;84.20;;;;;;5006836;28;20206;-63
2023/07/13 02:27:53;;;;;;;2.00;0.70;;;19.00;84.30;;;;;;4997620;28;20257;-63
2023/07/13 02:30:18;;;;;;;3.72;0.90;;;18.90;84.30;;;;;;4997446;28;20193;-66
2023/07/13 02:32:44;;;;;;;1.85;0.90;;;18.90;84.30;;;;;;4997203;28;20293;-63
2023/07/13 02:35:10;;;;;;;1.55;0.90;;;18.90;84.40;;;;;;5004371;28;20209;-63
2023/07/13 02:37:36;;;;;;;2.92;0.98;;;18.90;84.60;;;;;;4993222;28;20179;-63
2023/07/13 02:40:08;;;;;;;3.25;1.38;;;18.90;84.70;;;;;;5010626;28;20198;-62
2023/07/13 02:42:36;;;;;;;1.45;0.85;;;18.80;84.70;;;;;;4986154;28;20258;-63
2023/07/13 02:45:01;;;;;;;1.73;0.90;;;18.80;84.80;;;;;;5016002;28;20233;-63
2023/07/13 02:47:27;;;;;;;3.15;0.90;;;18.80;85.60;;;;;;5018690;28;20183;-63
2023/07/13 02:49:53;;;;;;;2.03;1.02;;;18.80;85.00;;;;;;4998065;28;20205;-63
2023/07/13 02:52:19;;;;;;;1.25;0.90;;;18.80;85.10;;;;;;4998850;28;20202;-63
2023/07/13 02:54:47;;;;;;;1.25;0.80;;;18.70;85.20;;;;;;5003196;28;20182;-61
2023/07/13 02:57:13;;;;;;;1.88;0.82;;;18.70;85.40;;;;;;5018686;28;20170;-60
2023/07/13 02:59:38;;;;;;;0.82;0.63;;;18.70;85.60;;;;;;5012025;28;20185;-61
2023/07/13 03:02:08;;;;;;;2.08;0.80;;;18.70;85.80;;;;;;5004009;28;20229;-63
2023/07/13 03:04:38;;;;;;;1.55;0.80;;;18.70;86.00;;;;;;5015128;28;20178;-62
2023/07/13 03:07:04;;;;;;;4.25;0.80;;;18.70;86.20;;;;;;4997333;28;20187;-62
2023/07/13 03:09:31;;;;;;;1.35;0.80;;;18.70;86.90;;;;;;4999197;28;20171;-63
2023/07/13 03:11:56;;;;;;;1.73;0.60;;;18.70;86.40;;;;;;4992588;28;20197;-62
2023/07/13 03:14:23;;;;;;;1.02;0.80;;;18.70;86.50;;;;;;5004984;28;20262;-63
2023/07/13 03:16:54;;;;;;;2.42;0.70;;;18.70;86.60;;;;;;5002417;28;20240;-62
2023/07/13 03:19:20;;;;;;;2.08;0.80;;;18.70;86.60;;;;;;5003531;28;20190;-61
2023/07/13 03:21:48;;;;;;;2.30;0.77;;;18.70;86.70;;;;;;5005253;28;20175;-61
2023/07/13 03:24:16;;;;;;;0.85;0.60;;;18.70;86.80;;;;;;5001114;28;20168;-63
2023/07/13 03:26:43;;;;;;;1.92;0.65;;;18.70;87.00;;;;;;4996161;28;20198;-63
2023/07/13 03:29:09;;;;;;;1.80;0.90;;;18.60;86.90;;;;;;5008406;28;20196;-60
2023/07/13 03:31:36;;;;;;;4.13;0.80;;;18.60;86.90;;;;;;5015646;28;20269;-63
2023/07/13 03:34:05;;;;;;;1.73;0.80;;;18.60;87.00;;;;;;5000349;28;20244;-63
2023/07/13 03:36:32;;;;;;;1.92;0.70;;;18.60;87.20;;;;;;5004007;28;20195;-61
2023/07/13 03:39:00;;;;;;;1.77;0.63;;;18.60;87.20;;;;;;5010228;28;20193;-62
2023/07/13 03:41:26;;;;;;;1.90;0.77;;;18.60;87.40;;;;;;5003848;28;20198;-60
2023/07/13 03:43:54;;;;;;;2.35;0.80;;;18.60;87.40;;;;;;5001700;28;20171;-62
2023/07/13 03:46:20;;;;;;;1.65;0.90;;;18.60;87.50;;;;;;4996317;28;20210;-63
2023/07/13 03:48:47;;;;;;;1.80;0.75;;;18.60;87.60;;;;;;5003129;28;20183;-62
2023/07/13 03:51:15;;;;;;;1.95;0.60;;;18.50;87.60;;;;;;5027516;28;20213;-62
2023/07/13 03:53:42;;;;;;;1.52;0.70;;;18.50;87.80;;;;;;4999506;28;20190;-62
2023/07/13 03:56:09;;;;;;;1.98;0.88;;;18.50;87.90;;;;;;5005866;28;20273;-62
2023/07/13 03:58:39;;;;;;;1.25;0.70;;;18.50;88.10;;;;;;4999879;28;20206;-64
2023/07/13 04:01:07;;;;;;;1.10;0.60;;;18.60;88.30;;;;;;5001016;28;20360;-63
2023/07/13 04:03:36;;;;;;;2.38;0.80;;;18.50;88.40;;;;;;5007793;28;20198;-63
2023/07/13 04:06:06;;;;;;;2.45;0.80;;;18.60;88.60;;;;;;5000741;28;20198;-64
2023/07/13 04:08:34;;;;;;;0.95;0.63;;;18.60;89.40;;;;;;5016226;28;20186;-63
2023/07/13 04:11:03;;;;;;;1.92;0.82;;;18.50;88.60;;;;;;4998753;28;20187;-62
2023/07/13 04:13:31;;;;;;;1.42;0.80;;;18.50;88.70;;;;;;5001589;28;20195;-63
2023/07/13 04:15:59;;;;;;;3.85;1.00;;;18.50;88.90;;;;;;5001629;28;20206;-62
2023/07/13 04:18:27;;;;;;;4.35;0.90;;;18.50;89.10;;;;;;5013936;28;20209;-60
2023/07/13 04:20:53;;;;;;;3.00;1.00;;;18.50;89.40;;;;;;5007042;28;20174;-63
2023/07/13 04:23:21;;;;;;;2.15;1.00;;;18.40;89.40;;;;;;5004182;28;20313;-63
2023/07/13 04:25:49;;;;;;;3.20;0.90;;;18.40;89.70;;;;;;5000868;28;20194;-63
2023/07/13 04:28:15;;;;;;;2.60;1.00;;;18.40;89.80;;;;;;4998988;28;20206;-63
2023/07/13 04:30:41;;;;;;;3.97;1.00;;;18.40;90.00;;;;;;4992213;28;20213;-63
2023/07/13 04:33:08;;;;;;;4.28;0.98;;;18.40;90.10;;;;;;5009134;28;20321;-64
2023/07/13 04:35:34;;;;;;;1.65;0.90;;;18.40;90.20;;;;;;4996648;28;20578;-63
2023/07/13 04:38:01;;;;;;;3.03;1.08;;;18.40;90.30;;;;;;4995071;28;20208;-64
2023/07/13 04:40:28;;;;;;;1.20;0.80;;;18.40;90.40;;;;;;4996638;28;20178;-63
2023/07/13 04:42:56;;;;;;;2.65;1.00;;;18.40;90.50;;;;;;5001295;28;20173;-63
2023/07/13 04:45:24;;;;;;;3.42;1.15;;;18.30;90.60;;;;;;4998145;28;20207;-64
2023/07/13 04:47:50;;;;;;;2.55;0.95;;;18.40;90.70;;;;;;4999188;28;20179;-64
2023/07/13 04:50:21;;;;;;;1.88;0.95;;;18.40;90.80;;;;;;5014563;28;20197;-64
2023/07/13 04:52:47;;;;;;;3.15;1.13;;;18.30;90.90;;;;;;4996211;28;20218;-64
2023/07/13 04:55:15;;;;;;;2.22;0.90;;;18.30;91.10;;;;;;4988788;28;20214;-62
2023/07/13 04:57:43;;;;;;;3.75;0.85;;;18.30;91.20;;;;;;4992712;28;20179;-63
2023/07/13 05:00:15;;;;;;;3.88;0.93;;;18.30;91.30;;;;;;4996457;28;20171;-64
2023/07/13 05:02:44;;;;;;;2.40;1.15;;;18.40;91.50;;;;;;4998601;28;20175;-62
2023/07/13 05:05:12;;;;;;;3.30;0.95;;;18.30;91.60;;;;;;4995155;28;20373;-64
2023/07/13 05:07:37;;;;;;;3.47;1.00;;;18.40;91.70;;;;;;5011978;28;20232;-63
2023/07/13 05:10:03;;;;;;;2.22;0.88;;;18.40;91.80;;;;;;4998780;28;20269;-61
2023/07/13 05:12:32;;;;;;;3.92;1.00;;;18.40;92.00;;;;;;5003692;28;20178;-64
2023/07/13 05:14:59;;;;;;;4.85;1.08;;;18.40;92.10;;;;;;5014882;28;20186;-63
2023/07/13 05:17:25;;;;;;;2.67;1.08;;;18.40;92.20;;;;;;5000146;28;20178;-65
2023/07/13 05:19:51;;;;;;;1.98;0.90;;;18.40;92.30;;;;;;4987650;28;20158;-62
2023/07/13 05:22:16;;;;;;;4.13;1.30;;;18.40;92.50;;;;;;5003730;28;20170;-63
2023/07/13 05:24:42;;;;;;;3.08;1.10;;;18.50;92.60;;;;;;5012136;28;20199;-63
2023/07/13 05:27:07;;;;;;;1.88;0.98;;;18.50;92.70;;;;;;4998294;28;20178;-63
2023/07/13 05:29:33;;;;;;;2.60;1.10;;;18.50;92.80;;;;;;4998594;28;20175;-60
2023/07/13 05:31:59;;;;;;;1.73;0.95;;;18.60;93.20;;;;;;4995542;28;20195;-64
2023/07/13 05:34:24;;;;;;;2.47;0.93;;;18.60;93.10;;;;;;4985113;28;20187;-63
2023/07/13 05:36:52;;;;;;;3.13;1.20;;;18.60;93.20;;;;;;4997483;28;20206;-63
2023/07/13 05:39:21;;;;;;;2.97;1.13;;;18.70;93.50;;;;;;4998853;28;20273;-64
2023/07/13 05:41:46;;;;;;;1.92;1.00;;;18.70;93.60;;;;;;5000909;28;20211;-64
2023/07/13 05:44:12;;;;;;;2.63;0.80;;;18.80;93.60;;;;;;4994867;28;20206;-64
2023/07/13 05:46:42;;;;;;;3.92;1.00;;;18.80;93.70;;;;;;4984517;28;20254;-63
2023/07/13 05:49:10;;;;;;;1.95;0.88;;;18.90;93.80;;;;;;4988201;28;20182;-64
2023/07/13 05:51:38;;;;;;;1.48;0.90;;;19.00;93.90;;;;;;4998325;28;20183;-62
2023/07/13 05:54:04;;;;;;;2.30;0.63;;;19.00;94.30;;;;;;5003199;28;20208;-63
2023/07/13 05:56:30;;;;;;;2.83;1.00;;;19.00;94.10;;;;;;4998685;28;20305;-63
2023/07/13 05:58:58;;;;;;;3.08;0.95;;;19.10;94.10;;;;;;4999554;28;20183;-64
2023/07/13 06:01:23;;;;;;;1.83;0.80;;;19.10;94.10;;;;;;5014958;28;20210;-63
2023/07/13 06:03:49;;;;;;;3.05;0.82;;;19.10;94.10;;;;;;5014925;28;20222;-63
2023/07/13 06:06:18;;;;;;;1.73;0.70;;;19.20;94.30;;;;;;5012009;28;20182;-64
2023/07/13 06:08:44;;;;;;;1.60;0.80;;;19.20;94.40;;;;;;5014748;28;20193;-64
2023/07/13 06:11:14;;;;;;;3.25;1.38;;;19.30;94.50;;;;;;4998276;28;20170;-64
2023/07/13 06:13:40;;;;;;;2.58;0.90;;;19.40;94.70;;;;;;4991708;28;20178;-63
2023/07/13 06:16:08;;;;;;;3.97;1.20;;;19.50;95.10;;;;;;4994190;28;20258;-64
2023/07/13 06:18:35;;;;;;;1.98;1.00;;;19.50;94.70;;;;;;4996141;28;20262;-64
2023/07/13 06:21:09;;;;;;;2.67;1.10;;;19.60;94.80;;;;;;5014308;28;20170;-64
2023/07/13 06:23:38;;;;;;;1.70;0.90;;;19.60;94.90;;;;;;4994578;28;20184;-63
2023/07/13 06:26:04;;;;;;;1.88;0.77;;;19.70;95.30;;;;;;4980393;28;20183;-63
2023/07/13 06:28:36;;;;;;;2.25;0.88;;;19.70;95.10;;;;;;5014478;28;20179;-63
2023/07/13 06:31:07;;;;;;;2.58;0.80;;;19.80;95.00;;;;;;5004314;28;20194;-64
2023/07/13 06:33:35;;;;;;;2.38;0.80;;;19.90;95.10;;;;;;4997784;28;20184;-63
2023/07/13 06:36:05;;;;;;;3.42;0.80;;;19.90;95.10;;;;;;4997668;28;20229;-64
2023/07/13 06:38:31;;;;;;;2.55;1.08;;;20.00;95.10;;;;;;5005668;28;20285;-63
2023/07/13 06:40:59;;;;;;;3.83;1.10;;;20.00;95.00;;;;;;5017702;28;20281;-64
2023/07/13 06:43:28;;;;;;;2.33;0.90;;;20.00;94.90;;;;;;4999618;28;20178;-63
2023/07/13 06:45:58;;;;;;;2.20;0.95;;;20.00;94.80;;;;;;4991625;28;20191;-63
2023/07/13 06:48:24;;;;;;;2.58;0.88;;;20.10;94.80;;;;;;4989618;28;20187;-64
2023/07/13 06:50:51;;;;;;;1.50;0.90;;;20.00;94.80;;;;;;5003118;28;20231;-62
2023/07/13 06:53:20;;;;;;;1.90;0.98;;;20.10;94.90;;;;;;5000766;28;20269;-63
2023/07/13 06:55:48;;;;;;;2.47;1.00;;;20.10;94.80;;;;;;5013804;28;20201;-64
2023/07/13 06:58:19;;;;;;;1.65;0.90;;;20.10;94.90;;;;;;4997275;28;20190;-63
2023/07/13 07:00:47;;;;;;;2.75;1.30;;;20.10;94.90;;;;;;4999222;28;20186;-64
2023/07/13 07:03:13;;;;;;;1.77;1.08;;;20.10;95.00;;;;;;4997879;28;20178;-64
2023/07/13 07:05:39;;;;;;;1.55;0.93;;;20.10;95.10;;;;;;5013808;28;20213;-63
2023/07/13 07:08:05;;;;;;;1.98;0.82;;;20.20;95.20;;;;;;4997705;28;20187;-64
2023/07/13 07:10:34;;;;;;;2.08;0.85;;;20.30;95.40;;;;;;5013577;28;20208;-63
2023/07/13 07:13:04;;;;;;;1.35;0.77;;;20.30;95.30;;;;;;4997592;28;20198;-62
2023/07/13 07:15:33;;;;;;;2.53;1.48;;;20.40;95.40;;;;;;4998183;28;20202;-63
2023/07/13 07:17:59;;;;;;;2.58;1.00;;;20.50;95.20;;;;;;4997453;28;20171;-61
2023/07/13 07:20:27;;;;;;;2.75;0.80;;;20.50;95.10;;;;;;5014039;28;20179;-63
2023/07/13 07:22:55;;;;;;;3.20;0.85;;;20.60;95.20;;;;;;4997482;28;20182;-63
2023/07/13 07:25:21;;;;;;;3.00;1.00;;;20.60;95.20;;;;;;4997398;28;20190;-64
2023/07/13 07:27:46;;;;;;;1.35;0.68;;;20.60;95.10;;;;;;5001826;28;20178;-64
2023/07/13 07:30:18;;;;;;;3.95;0.90;;;20.60;95.10;;;;;;5006021;28;20170;-64
2023/07/13 07:32:43;;;;;;;2.92;1.10;;;20.70;95.10;;;;;;5014540;28;20198;-64
2023/07/13 07:35:14;;;;;;;1.73;0.77;;;20.70;95.00;;;;;;5005389;28;20248;-63
2023/07/13 07:37:39;;;;;;;2.28;1.10;;;20.80;95.10;;;;;;5004539;28;20162;-64
2023/07/13 07:40:08;;;;;;;2.55;1.13;;;20.80;95.10;;;;;;5006667;28;20217;-62
2023/07/13 07:42:38;;;;;;;1.70;0.90;;;20.90;95.20;;;;;;5006547;28;20182;-64
2023/07/13 07:45:04;;;;;;;2.55;1.17;;;20.80;95.00;;;;;;5002737;28;20266;-64
2023/07/13 07:47:30;;;;;;;3.20;1.15;;;20.90;95.00;;;;;;5016666;28;20230;-63
2023/07/13 07:50:00;;;;;;;2.35;1.00;;;20.90;95.10;;;;;;5000946;28;20198;-63
2023/07/13 07:52:26;;;;;;;2.63;1.08;;;20.90;95.10;;;;;;5000751;28;20186;-63
2023/07/13 07:54:51;;;;;;;3.08;0.90;;;21.00;95.20;;;;;;5016938;28;20218;-74
2023/07/13 07:57:19;;;;;;;1.75;1.10;;;21.10;95.30;;;;;;5000436;28;20186;-73
2023/07/13 07:59:45;;;;;;;1.45;0.90;;;21.10;95.20;;;;;;5017049;28;20183;-66
2023/07/13 08:02:11;;;;;;;2.08;1.10;;;21.20;95.30;;;;;;5000957;28;20179;-72
2023/07/13 08:04:37;;;;;;;2.28;1.05;;;21.30;95.20;;;;;;5000464;28;20248;-73
2023/07/13 08:07:02;;;;;;;4.40;1.00;;;21.30;95.10;;;;;;5000350;28;20373;-72
2023/07/13 08:09:29;;;;;;;3.05;1.05;;;21.40;95.30;;;;;;5000779;28;20198;-73
2023/07/13 08:11:54;;;;;;;1.75;0.82;;;21.40;95.30;;;;;;5000422;28;20225;-68
2023/07/13 08:14:20;;;;;;;1.70;0.80;;;21.40;95.20;;;;;;5005446;28;20197;-71
2023/07/13 08:16:46;;;;;;;2.85;1.15;;;21.50;95.30;;;;;;5000435;28;20217;-70
2023/07/13 08:19:12;;;;;;;2.25;1.10;;;21.50;95.30;;;;;;5000270;28;20170;-74
2023/07/13 08:21:42;;;;;;;1.35;0.93;;;21.60;95.20;;;;;;5000373;28;20329;-74
2023/07/13 08:24:10;;;;;;;1.63;0.98;;;21.60;95.10;;;;;;5000431;28;20178;-72
2023/07/13 08:26:36;;;;;;;2.50;1.00;;;21.70;95.20;;;;;;5014697;28;20174;-73
2023/07/13 08:29:03;;;;;;;2.72;1.17;;;21.70;95.20;;;;;;5004383;28;20217;-73
2023/07/13 08:31:28;;;;;;;2.22;1.00;;;21.80;95.20;;;;;;5002456;28;20359;-72
2023/07/13 08:33:54;;;;;;;1.50;0.98;;;21.90;95.20;;;;;;5005719;28;20281;-74
2023/07/13 08:36:19;;;;;;;2.53;1.02;;;22.00;95.30;;;;;;5016127;28;20194;-72
2023/07/13 08:38:47;;;;;;;1.45;0.98;;;22.10;95.30;;;;;;5016110;28;20175;-74
2023/07/13 08:41:17;;;;;;;2.60;1.00;;;22.20;95.30;;;;;;4999603;28;20178;-73
2023/07/13 08:43:50;;;;;;;1.35;0.85;;;22.30;95.10;;;;;;4999028;28;20404;-73
2023/07/13 08:46:38;;;;;;;2.00;0.93;;;22.40;94.70;;;;;;5002850;28;20205;-72
2023/07/13 08:49:15;;;;;;;1.75;0.95;;;22.50;94.30;;;;;;5010804;28;20206;-72
2023/07/13 08:51:47;;;;;;;2.22;0.90;;;22.60;94.50;;;;;;5009357;28;20183;-73
2023/07/13 08:54:21;;;;;;;3.05;1.15;;;22.70;94.30;;;;;;5006029;28;20174;-74
2023/07/13 08:56:55;;;;;;;2.08;0.95;;;22.80;94.00;;;;;;5013225;28;20210;-74
2023/07/13 08:59:26;;;;;;;2.28;0.80;;;22.90;94.10;;;;;;4999476;28;20178;-70
2023/07/13 09:02:22;;;;;;;1.83;0.80;;;23.00;93.90;;;;;;5002681;28;20185;-73
2023/07/13 09:04:54;;;;;;;2.58;0.80;;;23.00;92.90;;;;;;5006336;28;20185;-71
2023/07/13 09:07:35;;;;;;;1.70;0.80;;;23.20;93.30;;;;;;5010762;28;20210;-72
2023/07/13 09:10:20;;;;;;;2.15;0.70;;;23.30;93.10;;;;;;5018395;28;20265;-72
2023/07/13 09:12:46;;;;;;;1.05;0.60;;;23.40;92.70;;;;;;4999215;28;20163;-72
2023/07/13 09:15:39;;;;;;;1.70;0.80;;;23.40;93.10;;;;;;5005839;28;20217;-74
2023/07/13 09:18:10;;;;;;;1.70;0.90;;;23.50;91.20;;;;;;4992831;28;20337;-68
2023/07/13 09:20:47;;;;;;;2.00;0.80;;;23.50;92.40;;;;;;4996822;28;20297;-72
2023/07/13 09:23:19;;;;;;;2.15;0.77;;;23.60;92.40;;;;;;4998888;28;20401;-72
2023/07/13 09:25:50;;;;;;;1.50;0.90;;;23.70;92.30;;;;;;5008427;28;20176;-74
2023/07/13 09:29:03;;;;;;;2.08;0.93;;;23.80;92.00;;;;;;5000420;28;20177;-70
2023/07/13 09:31:36;;;;;;;2.63;1.00;;;23.90;92.00;;;;;;4995800;28;20214;-74
2023/07/13 09:34:04;;;;;;;5.40;0.95;;;23.90;92.10;;;;;;4996167;28;20179;-73
2023/07/13 09:36:32;;;;;;;1.52;0.73;;;24.00;92.50;;;;;;5006164;28;20197;-73
2023/07/13 09:39:11;;;;;;;1.83;1.05;;;24.10;92.20;;;;;;5011094;28;20190;-73
2023/07/13 09:41:55;;;;;;;0.98;0.77;;;24.10;91.90;;;;;;5009462;28;20197;-70
2023/07/13 09:44:33;;;;;;;1.67;0.93;;;24.10;91.80;;;;;;5002991;28;20202;-72
2023/07/13 09:47:02;;;;;;;3.88;1.10;;;24.10;91.50;;;;;;4998555;28;20162;-73
2023/07/13 09:49:36;;;;;;;2.05;0.90;;;24.10;91.60;;;;;;4998647;28;20190;-74
2023/07/13 09:52:03;;;;;;;1.70;0.88;;;24.20;91.60;;;;;;4997542;28;20179;-73
2023/07/13 09:54:34;;;;;;;1.60;0.77;;;24.20;91.70;;;;;;5014842;28;20179;-72
2023/07/13 09:57:00;;;;;;;1.85;1.00;;;24.30;91.90;;;;;;4998335;28;20225;-72
2023/07/13 09:59:33;;;;;;;2.38;1.20;;;24.40;92.10;;;;;;5017536;28;20174;-70
2023/07/13 10:01:59;;;;;;;2.38;1.08;;;24.50;92.00;;;;;;5008984;28;20216;-74
2023/07/13 10:04:32;;;;;;;1.40;0.90;;;24.50;91.70;;;;;;5012387;28;20253;-73
2023/07/13 10:07:15;;;;;;;2.25;0.88;;;24.60;91.20;;;;;;4998471;28;20198;-73
2023/07/13 10:09:41;;;;;;;3.50;0.90;;;24.70;91.40;;;;;;5014432;28;20316;-72
2023/07/13 10:12:15;;;;;;;1.67;0.80;;;24.80;92.10;;;;;;5010068;28;20199;-70
2023/07/13 10:14:42;;;;;;;2.03;0.90;;;24.90;91.10;;;;;;5009877;28;20182;-73
2023/07/13 10:17:15;;;;;;;2.33;0.70;;;24.90;91.10;;;;;;5007008;28;20366;-73
2023/07/13 10:19:45;;;;;;;1.98;0.82;;;24.90;90.80;;;;;;5014633;28;20221;-73
2023/07/13 10:22:14;;;;;;;4.13;1.15;;;24.90;91.00;;;;;;4998544;28;20268;-72
2023/07/13 10:24:43;;;;;;;2.22;1.00;;;24.90;90.80;;;;;;4999574;28;20211;-71
2023/07/13 10:27:25;;;;;;;1.33;0.75;;;24.80;90.90;;;;;;5003717;28;20272;-74
2023/07/13 10:30:01;;;;;;;1.35;0.77;;;24.70;90.50;;;;;;4994806;28;20236;-73
2023/07/13 10:32:26;;;;;;;1.35;0.80;;;24.70;90.70;;;;;;5007203;28;20201;-72
2023/07/13 10:34:55;;;;;;;1.95;0.88;;;24.70;90.70;;;;;;5006069;28;20186;-72
2023/07/13 10:37:29;;;;;;;1.92;0.88;;;24.60;90.90;;;;;;4997990;28;20191;-73
2023/07/13 10:39:59;;;;;;;1.58;0.77;;;24.60;90.60;;;;;;5004328;28;20289;-73
2023/07/13 10:42:38;;;;;;;1.83;0.80;;;24.70;91.10;;;;;;5015364;28;20185;-71
2023/07/13 10:45:37;;;;;;;1.98;0.90;;;24.70;91.00;;;;;;4994679;28;20167;-73
2023/07/13 10:48:04;;;;;;;2.42;1.00;;;24.90;90.90;;;;;;4983835;28;20253;-71
2023/07/13 10:50:31;;;;;;;2.20;0.93;;;25.00;90.90;;;;;;5003161;28;20226;-73
2023/07/13 10:53:21;;;;;;;2.55;0.93;;;25.20;90.70;;;;;;4987914;28;20196;-72
2023/07/13 10:55:52;;;;;;;1.63;0.82;;;25.30;90.20;;;;;;5014026;28;20202;-71
2023/07/13 10:58:28;;;;;;;1.40;0.80;;;25.50;88.30;;;;;;4997871;28;20181;-73
2023/07/13 11:01:06;;;;;;;2.75;0.93;;;25.50;87.30;;;;;;4997678;28;20190;-70
2023/07/13 11:03:39;;;;;;;0.90;0.65;;;25.60;85.30;;;;;;5000803;28;20170;-72
2023/07/13 11:06:15;;;;;;;1.10;0.50;;;25.50;85.40;;;;;;5020272;28;20184;-73
2023/07/13 11:08:49;;;;;;;2.20;0.60;;;25.50;84.40;;;;;;5012832;28;20174;-68
2023/07/13 11:11:46;;;;;;;2.35;0.70;;;25.50;82.40;;;;;;5016756;28;20187;-73
2023/07/13 11:14:28;;;;;;;1.17;0.75;;;25.40;82.20;;;;;;4999965;28;20284;-71
2023/07/13 11:16:57;;;;;;;1.17;0.68;;;25.40;82.50;;;;;;5001695;28;20201;-72
2023/07/13 11:19:22;;;;;;;6.68;1.42;;;25.30;83.00;;;;;;5014414;28;20266;-72
2023/07/13 11:22:09;;;;;;;2.08;1.08;;;25.30;81.60;;;;;;5001185;28;20213;-69
2023/07/13 11:24:58;;;;;;;3.33;0.90;;;25.40;80.00;;;;;;5001610;28;20494;-70
2023/07/13 11:27:48;;;;;;;1.23;0.80;;;25.30;79.40;;;;;;4991361;28;20214;-71
2023/07/13 11:30:29;;;;;;;2.88;1.08;;;25.20;78.30;;;;;;5004051;28;20278;-73
2023/07/13 11:33:24;;;;;;;1.38;0.80;;;25.10;78.00;;;;;;5002564;28;20250;-70
2023/07/13 11:36:19;;;;;;;2.03;0.80;;;25.10;77.60;;;;;;5017975;28;20402;-72
2023/07/13 11:39:19;;;;;;;1.42;0.70;;;25.00;75.90;;;;;;4993614;28;20183;-73
2023/07/13 11:41:53;;;;;;;1.42;0.60;;;24.90;76.70;;;;;;5023944;28;20209;-72
2023/07/13 11:44:26;;;;;;;1.80;0.70;;;24.90;78.60;;;;;;4997182;28;20191;-71
2023/07/13 11:47:00;;;;;;;1.02;0.70;;;24.90;77.50;;;;;;5001754;28;20209;-74
2023/07/13 11:49:33;;;;;;;1.42;0.75;;;24.90;76.80;;;;;;4982952;28;20217;-67
2023/07/13 11:52:00;;;;;;;1.67;0.82;;;24.80;76.90;;;;;;4995360;28;20182;-69
2023/07/13 11:54:29;;;;;;;1.48;0.70;;;24.70;77.00;;;;;;5018941;28;20220;-69
2023/07/13 11:57:01;;;;;;;1.63;0.93;;;24.70;76.80;;;;;;5002656;28;20293;-69
2023/07/13 11:59:29;;;;;;;1.30;0.85;;;24.60;77.00;;;;;;5002882;28;20189;-70
2023/07/13 12:01:58;;;;;;;2.40;0.80;;;24.50;77.30;;;;;;5003415;28;20195;-70
2023/07/13 12:04:28;;;;;;;1.85;0.93;;;24.60;76.50;;;;;;5002206;28;20175;-71
2023/07/13 12:07:04;;;;;;;1.30;0.70;;;24.50;76.00;;;;;;4998688;28;20183;-71
2023/07/13 12:09:32;;;;;;;1.38;0.80;;;24.50;76.50;;;;;;5011579;28;20208;-71
2023/07/13 12:12:00;;;;;;;1.38;0.63;;;24.50;77.10;;;;;;5021389;28;20179;-61
2023/07/13 12:14:26;;;;;;;2.58;0.80;;;24.50;77.50;;;;;;5011772;28;20206;-69
2023/07/13 12:16:56;;;;;;;1.55;1.00;;;24.60;77.70;;;;;;5016802;28;20195;-62
2023/07/13 12:19:29;;;;;;;1.50;0.80;;;24.70;77.80;;;;;;5020070;28;20170;-63
2023/07/13 12:21:57;;;;;;;2.05;0.80;;;24.70;76.90;;;;;;5020397;28;20167;-65
2023/07/13 12:24:26;;;;;;;1.52;0.77;;;24.70;77.00;;;;;;5019231;28;20167;-69
2023/07/13 12:27:04;;;;;;;3.30;1.15;;;24.70;76.90;;;;;;5001166;28;20277;-71
2023/07/13 12:29:31;;;;;;;1.60;0.80;;;24.70;76.20;;;;;;5000885;28;20233;-68
2023/07/13 12:31:57;;;;;;;2.13;0.80;;;24.70;77.20;;;;;;5000319;28;20237;-72
2023/07/13 12:34:28;;;;;;;2.05;0.90;;;24.70;77.60;;;;;;5007535;28;20182;-71
2023/07/13 12:36:56;;;;;;;3.53;1.23;;;24.60;77.80;;;;;;5006568;28;20296;-71
2023/07/13 12:39:25;;;;;;;2.35;0.90;;;24.70;78.10;;;;;;5000581;28;20185;-69
2023/07/13 12:41:53;;;;;;;1.77;1.00;;;24.60;78.10;;;;;;4999760;28;20177;-70
2023/07/13 12:44:28;;;;;;;3.03;0.80;;;24.60;78.10;;;;;;4996201;28;20234;-70
2023/07/13 12:47:04;;;;;;;1.73;0.90;;;24.60;78.20;;;;;;5008132;28;20273;-71
2023/07/13 12:49:40;;;;;;;1.88;1.10;;;24.70;79.00;;;;;;5015254;28;20205;-71
2023/07/13 12:52:15;;;;;;;1.30;0.82;;;24.80;78.30;;;;;;5019023;28;20258;-70
2023/07/13 12:54:43;;;;;;;1.75;0.80;;;24.90;78.60;;;;;;5018241;28;20207;-72
2023/07/13 12:57:18;;;;;;;1.70;0.90;;;25.00;78.50;;;;;;4999571;28;20230;-72
2023/07/13 12:59:46;;;;;;;2.65;1.15;;;25.10;77.70;;;;;;5015722;28;20174;-70
2023/07/13 13:02:34;;;;;;;3.35;1.10;;;25.10;78.00;;;;;;4999163;28;20201;-71